createdAt,value
2018-01-04T00:01:40.165Z,3.37
2018-01-04T00:04:08.506Z,3.47
2018-01-04T00:06:36.089Z,4.03
2018-01-04T00:09:03.706Z,3.83
2018-01-04T00:11:31.282Z,6.68
2018-01-04T00:13:58.859Z,7.55
2018-01-04T00:16:26.442Z,5.18
2018-01-04T00:18:54.847Z,2.75
2018-01-04T00:21:22.463Z,2.08
2018-01-04T00:23:50.823Z,4.25
2018-01-04T00:26:18.405Z,4.43
2018-01-04T00:28:46.749Z,3.03
2018-01-04T00:31:14.322Z,2.20
2018-01-04T00:33:41.894Z,3.00
2018-01-04T00:36:09.474Z,3.72
2018-01-04T00:38:37.815Z,2.12
2018-01-04T00:41:05.394Z,5.20
2018-01-04T00:43:33.747Z,1.87
2018-01-04T00:46:01.319Z,2.05
2018-01-04T00:48:28.894Z,3.00
2018-01-04T00:50:57.239Z,4.12
2018-01-04T00:53:24.818Z,1.65
2018-01-04T00:55:52.390Z,1.90
2018-01-04T00:58:20.727Z,3.17
2018-01-04T01:00:48.467Z,2.47
2018-01-04T01:03:16.042Z,4.95
2018-01-04T01:05:43.619Z,1.17
2018-01-04T01:08:11.195Z,6.97
2018-01-04T01:10:38.779Z,1.27
2018-01-04T01:13:06.355Z,1.33
2018-01-04T01:15:33.930Z,3.10
2018-01-04T01:18:01.507Z,2.60
2018-01-04T01:20:29.082Z,3.47
2018-01-04T01:22:56.650Z,4.03
2018-01-04T01:25:24.226Z,3.22
2018-01-04T01:27:52.574Z,7.25
2018-01-04T01:30:20.151Z,3.50
2018-01-04T01:32:48.491Z,3.85
2018-01-04T01:35:16.066Z,6.85
2018-01-04T01:37:43.646Z,1.17
2018-01-04T01:40:11.999Z,2.53
2018-01-04T01:42:39.571Z,3.75
2018-01-04T01:45:07.158Z,2.30
2018-01-04T01:47:34.739Z,6.82
2018-01-04T01:50:02.315Z,6.20
2018-01-04T01:52:29.891Z,2.80
2018-01-04T01:54:57.469Z,2.70
2018-01-04T01:57:25.044Z,5.50
2018-01-04T01:59:53.388Z,5.10
2018-01-04T02:02:20.963Z,3.53
2018-01-04T02:04:48.542Z,6.43
2018-01-04T02:07:16.890Z,5.25
2018-01-04T02:09:44.467Z,1.45
2018-01-04T02:12:12.815Z,5.30
2018-01-04T02:14:40.386Z,6.72
2018-01-04T02:17:07.959Z,9.80
2018-01-04T02:19:47.151Z,1.87
2018-01-04T02:22:26.391Z,3.72
2018-01-04T02:25:05.630Z,3.72
2018-01-04T02:27:44.870Z,1.67
2018-01-04T02:30:24.078Z,2.12
2018-01-04T02:33:03.355Z,4.93
2018-01-04T02:35:43.301Z,7.40
2018-01-04T02:38:23.269Z,2.70
2018-01-04T02:40:58.362Z,0.90
2018-01-04T02:43:37.619Z,6.97
2018-01-04T02:46:23.661Z,2.25
2018-01-04T02:48:51.242Z,2.90
2018-01-04T02:51:18.815Z,4.70
2018-01-04T02:53:46.394Z,3.80
2018-01-04T02:56:14.739Z,3.78
2018-01-04T02:58:42.314Z,2.20
2018-01-04T03:01:09.922Z,1.98
2018-01-04T03:03:37.503Z,6.68
2018-01-04T03:06:05.091Z,4.15
2018-01-04T03:08:32.673Z,2.75
2018-01-04T03:11:01.023Z,2.28
2018-01-04T03:13:28.603Z,7.53
2018-01-04T03:15:56.946Z,5.55
2018-01-04T03:18:24.579Z,4.68
2018-01-04T03:20:52.154Z,2.17
2018-01-04T03:23:25.419Z,5.10
2018-01-04T03:25:58.523Z,6.32
2018-01-04T03:28:31.826Z,5.03
2018-01-04T03:31:04.915Z,5.35
2018-01-04T03:33:38.193Z,2.92
2018-01-04T03:36:11.320Z,4.87
2018-01-04T03:38:44.569Z,3.75
2018-01-04T03:41:17.846Z,5.68
2018-01-04T03:43:50.969Z,5.72
2018-01-04T03:46:24.055Z,5.32
2018-01-04T03:48:57.167Z,2.28
2018-01-04T03:51:30.163Z,5.35
2018-01-04T03:54:03.388Z,3.75
2018-01-04T03:56:36.639Z,7.95
2018-01-04T03:59:09.662Z,2.83
2018-01-04T04:01:43.558Z,11.82
2018-01-04T04:04:17.423Z,9.48
2018-01-04T04:06:45.025Z,8.60
2018-01-04T04:09:13.379Z,2.70
2018-01-04T04:11:40.954Z,3.20
2018-01-04T04:14:08.543Z,4.07
2018-01-04T04:16:36.127Z,3.60
2018-01-04T04:19:03.708Z,4.43
2018-01-04T04:21:31.283Z,4.43
2018-01-04T04:23:58.863Z,4.12
2018-01-04T04:26:27.201Z,4.97
2018-01-04T04:28:54.781Z,5.43
2018-01-04T04:31:22.364Z,7.25
2018-01-04T04:33:49.957Z,4.50
2018-01-04T04:36:17.539Z,7.85
2018-01-04T04:38:45.114Z,5.43
2018-01-04T04:41:12.700Z,5.82
2018-01-04T04:43:41.043Z,8.73
2018-01-04T04:46:08.619Z,5.40
2018-01-04T04:48:37.017Z,1.33
2018-01-04T04:51:04.608Z,4.05
2018-01-04T04:53:32.194Z,4.45
2018-01-04T04:55:59.774Z,12.57
2018-01-04T04:58:28.123Z,7.55
2018-01-04T05:00:55.939Z,10.52
2018-01-04T05:03:23.582Z,5.60
2018-01-04T05:05:51.946Z,15.18
2018-01-04T05:08:19.527Z,3.97
2018-01-04T05:10:47.126Z,5.32
2018-01-04T05:13:14.719Z,46.75
2018-01-04T05:15:42.303Z,9.43
2018-01-04T05:18:10.654Z,12.07
2018-01-04T05:20:38.242Z,12.98
2018-01-04T05:23:06.586Z,8.88
2018-01-04T05:25:34.202Z,6.12
2018-01-04T05:28:01.776Z,6.37
2018-01-04T05:30:29.362Z,10.25
2018-01-04T05:32:56.942Z,9.63
2018-01-04T05:35:25.292Z,8.60
2018-01-04T05:37:52.868Z,15.50
2018-01-04T05:40:20.455Z,7.75
2018-01-04T05:42:48.801Z,16.37
2018-01-04T05:45:16.374Z,13.15
2018-01-04T05:47:44.722Z,11.52
2018-01-04T05:50:12.299Z,11.12
2018-01-04T05:52:39.878Z,15.18
2018-01-04T05:55:08.282Z,16.60
2018-01-04T05:57:35.858Z,16.80
2018-01-04T06:00:03.455Z,10.30
2018-01-04T06:02:31.043Z,13.43
2018-01-04T06:04:59.384Z,7.20
2018-01-04T06:07:26.966Z,12.25
2018-01-04T06:09:55.318Z,12.95
2018-01-04T06:12:22.930Z,10.10
2018-01-04T06:14:50.515Z,19.27
2018-01-04T06:17:18.094Z,13.88
2018-01-04T06:19:45.679Z,16.80
2018-01-04T06:22:14.040Z,13.80
2018-01-04T06:24:42.415Z,23.08
2018-01-04T06:27:10.001Z,14.95
2018-01-04T06:29:38.342Z,13.13
2018-01-04T06:32:05.918Z,19.90
2018-01-04T06:34:33.567Z,10.18
2018-01-04T06:37:01.150Z,15.70
2018-01-04T06:39:29.598Z,20.25
2018-01-04T06:41:57.180Z,8.88
2018-01-04T06:44:24.764Z,19.02
2018-01-04T06:46:52.412Z,15.07
2018-01-04T06:49:20.763Z,9.93
2018-01-04T06:51:48.346Z,20.75
2018-01-04T06:54:16.689Z,8.27
2018-01-04T06:56:44.266Z,10.40
2018-01-04T06:59:11.859Z,10.50
2018-01-04T07:01:39.676Z,10.48
2018-01-04T07:04:07.274Z,12.15
2018-01-04T07:06:35.630Z,9.82
2018-01-04T07:09:03.289Z,18.10
2018-01-04T07:11:30.930Z,6.93
2018-01-04T07:13:58.510Z,9.07
2018-01-04T07:16:26.096Z,14.13
2018-01-04T07:18:54.448Z,10.93
2018-01-04T07:21:22.070Z,14.25
2018-01-04T07:23:49.648Z,12.73
2018-01-04T07:26:17.234Z,11.10
2018-01-04T07:28:45.600Z,13.85
2018-01-04T07:31:13.194Z,13.85
2018-01-04T07:33:40.817Z,10.50
2018-01-04T07:36:08.407Z,25.00
2018-01-04T07:38:36.758Z,22.35
2018-01-04T07:41:04.343Z,19.85
2018-01-04T07:43:32.690Z,17.40
2018-01-04T07:46:00.272Z,12.02
2018-01-04T07:48:28.618Z,15.32
2018-01-04T07:50:56.202Z,17.75
2018-01-04T07:53:24.554Z,10.30
2018-01-04T07:55:52.147Z,15.35
2018-01-04T07:58:20.500Z,14.07
2018-01-04T08:00:48.090Z,25.48
2018-01-04T08:03:16.439Z,16.02
2018-01-04T08:05:44.031Z,16.37
2018-01-04T08:08:11.610Z,9.27
2018-01-04T08:10:39.210Z,9.38
2018-01-04T08:13:06.787Z,10.13
2018-01-04T08:15:35.139Z,22.95
2018-01-04T08:18:02.722Z,17.33
2018-01-04T08:20:31.077Z,13.52
2018-01-04T08:22:58.662Z,10.52
2018-01-04T08:25:27.015Z,13.15
2018-01-04T08:27:54.594Z,19.25
2018-01-04T08:30:22.171Z,18.62
2018-01-04T08:32:50.522Z,19.30
2018-01-04T08:35:18.123Z,11.20
2018-01-04T08:37:45.723Z,11.20
2018-01-04T08:40:13.302Z,12.45
2018-01-04T08:42:40.886Z,20.70
2018-01-04T08:45:09.229Z,21.45
2018-01-04T08:47:36.810Z,16.42
2018-01-04T08:50:05.164Z,7.47
2018-01-04T08:52:32.747Z,23.73
2018-01-04T08:55:01.155Z,20.70
2018-01-04T08:57:28.739Z,16.20
2018-01-04T08:59:56.322Z,14.63
2018-01-04T09:02:23.959Z,15.15
2018-01-04T09:04:51.538Z,6.10
2018-01-04T09:07:19.117Z,16.50
2018-01-04T09:09:47.482Z,9.13
2018-01-04T09:12:15.114Z,12.68
2018-01-04T09:14:42.700Z,8.45
2018-01-04T09:17:10.291Z,17.17
2018-01-04T09:19:37.884Z,10.52
2018-01-04T09:22:05.466Z,15.10
2018-01-04T09:24:33.046Z,16.00
2018-01-04T09:27:00.643Z,14.40
2018-01-04T09:29:28.222Z,11.80
2018-01-04T09:31:55.797Z,13.27
2018-01-04T09:34:23.371Z,21.37
2018-01-04T09:36:50.970Z,14.25
2018-01-04T09:39:18.571Z,16.08
2018-01-04T09:41:46.151Z,28.48
2018-01-04T09:44:13.730Z,11.10
2018-01-04T09:46:42.086Z,13.82
2018-01-04T09:49:09.708Z,11.48
2018-01-04T09:51:37.302Z,18.62
2018-01-04T09:54:04.922Z,16.40
2018-01-04T09:56:32.508Z,20.65
2018-01-04T09:59:00.087Z,11.77
2018-01-04T10:01:27.670Z,7.37
2018-01-04T10:03:56.020Z,15.30
2018-01-04T10:06:23.603Z,10.68
2018-01-04T10:08:51.972Z,13.13
2018-01-04T10:11:19.562Z,13.98
2018-01-04T10:13:47.151Z,12.55
2018-01-04T10:16:14.741Z,16.33
2018-01-04T10:18:42.322Z,9.88
2018-01-04T10:21:10.679Z,18.23
2018-01-04T10:23:38.260Z,19.40
2018-01-04T10:26:06.606Z,16.23
2018-01-04T10:28:34.186Z,13.23
2018-01-04T10:31:02.551Z,12.50
2018-01-04T10:33:30.135Z,21.15
2018-01-04T10:35:58.683Z,18.37
2018-01-04T10:38:27.378Z,16.35
2018-01-04T10:40:55.134Z,15.68
2018-01-04T10:43:22.716Z,16.42
2018-01-04T10:45:51.094Z,18.92
2018-01-04T10:48:19.453Z,17.15
2018-01-04T10:50:47.030Z,16.45
2018-01-04T10:53:14.614Z,26.40
2018-01-04T10:55:42.200Z,17.02
2018-01-04T10:58:09.786Z,18.10
2018-01-04T11:00:37.379Z,15.18
2018-01-04T11:03:05.722Z,16.70
2018-01-04T11:05:33.303Z,17.23
2018-01-04T11:08:00.888Z,14.73
2018-01-04T11:10:28.468Z,11.27
2018-01-04T11:12:56.051Z,13.40
2018-01-04T11:15:23.629Z,13.57
2018-01-04T11:17:51.218Z,12.63
2018-01-04T11:20:18.803Z,9.30
2018-01-04T11:22:46.410Z,10.70
2018-01-04T11:25:14.039Z,21.50
2018-01-04T11:27:41.620Z,11.30
2018-01-04T11:30:09.211Z,15.50
2018-01-04T11:32:38.600Z,15.68
2018-01-04T11:35:06.970Z,20.17
2018-01-04T11:37:34.547Z,11.95
2018-01-04T11:40:02.947Z,12.27
2018-01-04T11:42:30.530Z,25.12
2018-01-04T11:44:58.111Z,16.15
2018-01-04T11:47:25.691Z,10.77
2018-01-04T11:49:53.266Z,13.75
2018-01-04T11:52:21.658Z,10.82
2018-01-04T11:57:26.995Z,13.60
2018-01-04T11:59:55.374Z,15.35
2018-01-04T12:02:22.967Z,13.40
2018-01-04T12:04:50.597Z,16.58
2018-01-04T12:07:18.181Z,11.73
2018-01-04T12:09:45.759Z,7.65
2018-01-04T12:12:13.393Z,15.15
2018-01-04T12:14:41.818Z,13.13
2018-01-04T12:17:09.502Z,12.75
2018-01-04T12:19:37.090Z,14.90
2018-01-04T12:22:05.902Z,18.27
2018-01-04T12:24:33.490Z,23.12
2018-01-04T12:27:01.087Z,18.10
2018-01-04T12:29:29.440Z,20.77
2018-01-04T12:31:57.896Z,12.15
2018-01-04T12:34:25.474Z,23.98
2018-01-04T12:36:53.845Z,9.57
2018-01-04T12:39:21.547Z,13.23
2018-01-04T12:41:50.944Z,11.30
2018-01-04T12:44:19.369Z,17.60
2018-01-04T12:46:56.160Z,19.80
2018-01-04T12:49:23.889Z,14.60
2018-01-04T12:51:51.616Z,19.50
2018-01-04T12:54:20.085Z,12.63
2018-01-04T12:56:47.745Z,13.02
2018-01-04T12:59:16.197Z,13.65
2018-01-04T13:01:43.900Z,9.20
2018-01-04T13:04:12.347Z,13.68
2018-01-04T13:06:40.018Z,11.93
2018-01-04T13:09:07.706Z,14.73
2018-01-04T13:11:36.114Z,10.63
2018-01-04T13:14:03.795Z,14.23
2018-01-04T13:16:31.421Z,17.00
2018-01-04T13:18:59.854Z,17.12
2018-01-04T13:21:27.481Z,14.85
2018-01-04T13:23:55.139Z,13.32
2018-01-04T13:26:22.828Z,20.25
2018-01-04T13:28:50.438Z,14.43
2018-01-04T13:31:18.848Z,19.02
2018-01-04T13:33:46.503Z,15.75
2018-01-04T13:36:14.238Z,19.25
2018-01-04T13:38:42.640Z,14.05
2018-01-04T13:41:10.306Z,19.50
2018-01-04T13:43:37.942Z,16.48
2018-01-04T13:46:06.348Z,16.08
2018-01-04T13:48:33.986Z,17.35
2018-01-04T13:51:02.349Z,16.20
2018-01-04T13:53:30.742Z,27.58
2018-01-04T13:55:59.115Z,18.15
2018-01-04T13:58:27.466Z,19.98
2018-01-04T14:00:55.094Z,26.77
2018-01-04T14:03:22.733Z,30.58
2018-01-04T14:05:50.323Z,22.40
2018-01-04T14:08:17.911Z,15.75
2018-01-04T14:10:45.490Z,18.95
2018-01-04T14:13:13.847Z,11.48
2018-01-04T14:15:41.431Z,29.37
2018-01-04T14:18:09.774Z,22.23
2018-01-04T14:20:37.404Z,16.80
2018-01-04T14:23:04.994Z,18.23
2018-01-04T14:25:32.576Z,19.73
2018-01-04T14:28:00.928Z,10.80
2018-01-04T14:30:28.514Z,20.40
2018-01-04T14:32:56.858Z,11.55
2018-01-04T14:35:24.434Z,27.23
2018-01-04T14:37:52.060Z,15.32
2018-01-04T14:40:19.639Z,10.70
2018-01-04T14:42:47.227Z,18.45
2018-01-04T14:45:15.575Z,13.00
2018-01-04T14:47:43.175Z,18.23
2018-01-04T14:50:12.374Z,17.45
2018-01-04T14:52:40.716Z,16.92
2018-01-04T14:55:08.310Z,16.67
2018-01-04T14:57:36.650Z,12.82
2018-01-04T15:00:04.286Z,20.52
2018-01-04T15:02:31.871Z,11.20
2018-01-04T15:04:59.454Z,14.02
2018-01-04T15:07:27.803Z,21.42
2018-01-04T15:09:55.382Z,12.77
2018-01-04T15:12:22.968Z,16.00
2018-01-04T15:14:50.579Z,15.18
2018-01-04T15:17:18.163Z,27.75
2018-01-04T15:19:46.515Z,19.12
2018-01-04T15:22:14.146Z,27.83
2018-01-04T15:24:41.753Z,27.52
2018-01-04T15:27:09.339Z,18.50
2018-01-04T15:29:37.688Z,19.75
2018-01-04T15:32:05.272Z,23.62
2018-01-04T15:34:33.614Z,32.20
2018-01-04T15:37:01.275Z,24.40
2018-01-04T15:39:28.854Z,23.83
2018-01-04T15:41:56.491Z,24.40
2018-01-04T15:44:24.066Z,25.77
2018-01-04T15:46:52.254Z,19.58
2018-01-04T15:49:20.599Z,20.70
2018-01-04T15:52:11.756Z,28.85
2018-01-04T15:54:39.339Z,26.90
2018-01-04T15:57:06.967Z,19.92
2018-01-04T15:59:35.310Z,23.58
2018-01-04T16:02:05.027Z,29.23
2018-01-04T16:04:40.979Z,24.67
2018-01-04T16:07:08.593Z,20.62
2018-01-04T16:09:36.181Z,27.95
2018-01-04T16:12:04.693Z,22.20
2018-01-04T16:14:34.174Z,21.98
2018-01-04T16:17:01.760Z,27.85
2018-01-04T16:19:29.339Z,32.45
2018-01-04T16:21:56.940Z,22.00
2018-01-04T16:24:24.575Z,19.90
2018-01-04T16:26:52.201Z,30.33
2018-01-04T16:29:19.834Z,26.45
2018-01-04T16:31:47.423Z,30.33
2018-01-04T16:34:15.778Z,36.80
2018-01-04T16:36:43.369Z,36.58
2018-01-04T16:39:35.203Z,33.50
2018-01-04T16:42:02.813Z,28.12
2018-01-04T16:44:43.048Z,50.00
2018-01-04T16:47:10.632Z,18.00
2018-01-04T16:49:38.269Z,26.62
2018-01-04T16:52:05.852Z,23.08
2018-01-04T16:54:33.435Z,21.90
2018-01-04T16:57:01.015Z,21.10
2018-01-04T16:59:28.599Z,26.10
2018-01-04T17:01:56.474Z,29.20
2018-01-04T17:04:39.125Z,27.70
2018-01-04T17:07:06.754Z,23.25
2018-01-04T17:09:34.350Z,31.83
2018-01-04T17:12:01.930Z,26.05
2018-01-04T17:14:41.194Z,21.12
2018-01-04T17:17:08.778Z,27.08
2018-01-04T17:19:36.360Z,30.08
2018-01-04T17:25:01.885Z,21.65
2018-01-04T17:27:29.544Z,25.90
2018-01-04T17:30:08.746Z,28.83
2018-01-04T17:32:36.466Z,21.20
2018-01-04T17:35:04.084Z,25.75
2018-01-04T17:37:33.690Z,21.35
2018-01-04T17:40:01.271Z,22.02
2018-01-04T17:42:29.794Z,22.62
2018-01-04T17:44:57.395Z,31.05
2018-01-04T17:47:24.980Z,25.88
2018-01-04T17:49:52.771Z,18.33
2018-01-04T17:52:20.407Z,19.50
2018-01-04T17:54:48.758Z,22.33
2018-01-04T17:57:24.827Z,17.50
2018-01-04T17:59:52.461Z,29.30
2018-01-04T18:02:20.807Z,21.87
2018-01-04T18:04:50.094Z,22.05
2018-01-04T18:07:17.674Z,16.98
2018-01-04T18:09:45.335Z,26.00
2018-01-04T18:12:13.685Z,19.75
2018-01-04T18:14:41.266Z,17.70
2018-01-04T18:17:08.848Z,19.27
2018-01-04T18:19:37.195Z,18.30
2018-01-04T18:22:04.905Z,27.00
2018-01-04T18:24:32.499Z,23.85
2018-01-04T18:27:00.084Z,25.25
2018-01-04T18:29:27.680Z,20.48
2018-01-04T18:35:05.489Z,23.77
2018-01-04T18:37:33.131Z,11.93
2018-01-04T18:40:01.497Z,20.42
2018-01-04T18:42:29.092Z,12.32
2018-01-04T18:44:56.671Z,15.43
2018-01-04T18:47:24.241Z,9.02
2018-01-04T18:49:51.824Z,17.15
2018-01-04T18:52:26.836Z,12.88
2018-01-04T18:54:54.438Z,17.17
2018-01-04T18:57:29.083Z,17.65
2018-01-04T18:59:56.669Z,10.65
2018-01-04T19:02:24.272Z,10.10
2018-01-04T19:04:54.797Z,14.57
2018-01-04T19:07:22.378Z,11.57
2018-01-04T19:09:50.727Z,11.73
2018-01-04T19:12:18.320Z,13.75
2018-01-04T19:14:46.666Z,23.25
2018-01-04T19:17:14.414Z,14.55
2018-01-04T19:19:42.046Z,13.50
2018-01-04T19:22:11.720Z,10.98
2018-01-04T19:24:40.127Z,16.60
2018-01-04T19:27:07.741Z,12.50
2018-01-04T19:29:35.340Z,12.82
2018-01-04T19:32:02.928Z,13.57
2018-01-04T19:34:30.524Z,7.10
2018-01-04T19:36:58.107Z,23.00
2018-01-04T19:39:26.453Z,9.95
2018-01-04T19:41:54.043Z,24.87
2018-01-04T19:44:22.386Z,11.12
2018-01-04T19:46:50.115Z,15.25
2018-01-04T19:49:17.699Z,12.40
2018-01-04T19:51:46.215Z,8.82
2018-01-04T19:54:14.573Z,13.62
2018-01-04T19:56:42.150Z,18.95
2018-01-04T19:59:09.733Z,16.23
2018-01-04T20:01:37.354Z,8.43
2018-01-04T20:04:04.938Z,12.93
2018-01-04T20:06:38.446Z,9.80
2018-01-04T20:09:06.043Z,19.85
2018-01-04T20:11:33.689Z,8.73
2018-01-04T20:14:01.346Z,6.72
2018-01-04T20:16:28.926Z,5.85
2018-01-04T20:18:56.503Z,7.22
2018-01-04T20:21:27.545Z,9.85
2018-01-04T20:23:55.206Z,5.80
2018-01-04T20:26:22.787Z,5.43
2018-01-04T20:28:50.427Z,6.32
2018-01-04T20:31:18.007Z,2.60
2018-01-04T20:33:46.363Z,2.97
2018-01-04T20:36:13.997Z,5.32
2018-01-04T20:38:41.630Z,7.97
2018-01-04T20:41:09.221Z,7.55
2018-01-04T20:43:37.896Z,3.83
2018-01-04T20:46:05.503Z,7.18
2018-01-04T20:48:33.111Z,2.50
2018-01-04T20:51:00.691Z,4.20
2018-01-04T20:53:28.277Z,6.55
2018-01-04T20:55:55.910Z,2.35
2018-01-04T20:58:23.498Z,8.30
2018-01-04T21:00:51.141Z,4.45
2018-01-04T21:03:18.719Z,2.50
2018-01-04T21:05:46.302Z,4.00
2018-01-04T21:08:15.603Z,3.67
2018-01-04T21:10:43.951Z,5.30
2018-01-04T21:13:11.527Z,2.53
2018-01-04T21:15:46.512Z,5.70
2018-01-04T21:18:14.107Z,4.80
2018-01-04T21:20:41.686Z,5.12
2018-01-04T21:23:10.662Z,6.25
2018-01-04T21:25:40.355Z,7.07
2018-01-04T21:28:07.930Z,8.20
2018-01-04T21:30:35.559Z,3.87
2018-01-04T21:33:03.134Z,2.92
2018-01-04T21:35:30.708Z,5.95
2018-01-04T21:37:58.299Z,2.17
2018-01-04T21:40:25.875Z,2.05
2018-01-04T21:42:54.030Z,2.90
2018-01-04T21:45:21.614Z,3.55
2018-01-04T21:47:49.234Z,4.03
2018-01-04T21:50:17.576Z,4.22
2018-01-04T21:52:45.198Z,5.75
2018-01-04T21:55:12.828Z,3.30
2018-01-04T21:57:41.171Z,3.12
2018-01-04T22:00:08.762Z,5.87
2018-01-04T22:02:37.106Z,6.75
2018-01-04T22:05:04.678Z,5.93
2018-01-04T22:07:32.262Z,5.75
2018-01-04T22:10:00.611Z,6.25
2018-01-04T22:12:28.187Z,6.95
2018-01-04T22:14:56.538Z,6.70
2018-01-04T22:17:24.111Z,4.62
2018-01-04T22:19:52.791Z,5.60
2018-01-04T22:22:20.372Z,7.53
2018-01-04T22:24:48.726Z,7.62
2018-01-04T22:27:16.320Z,5.32
2018-01-04T22:29:44.663Z,5.97
2018-01-04T22:32:12.299Z,7.25
2018-01-04T22:34:39.859Z,7.47
2018-01-04T22:37:07.443Z,5.35
2018-01-04T22:39:35.021Z,3.78
2018-01-04T22:42:03.375Z,4.22
2018-01-04T22:44:30.957Z,5.07
2018-01-04T22:46:59.306Z,5.70
2018-01-04T22:49:26.891Z,7.68
2018-01-04T22:51:55.244Z,6.00
2018-01-04T22:54:22.842Z,7.90
2018-01-04T22:56:51.241Z,11.60
2018-01-04T22:59:18.829Z,5.95
2018-01-04T23:01:46.458Z,5.30
2018-01-04T23:04:14.037Z,4.93
2018-01-04T23:06:41.610Z,4.18
2018-01-04T23:09:09.188Z,7.20
2018-01-04T23:11:36.771Z,5.85
2018-01-04T23:14:05.120Z,8.18
2018-01-04T23:16:32.703Z,6.28
2018-01-04T23:19:01.051Z,7.15
2018-01-04T23:21:28.628Z,5.53
2018-01-04T23:23:56.250Z,8.90
2018-01-04T23:26:23.838Z,6.87
2018-01-04T23:28:51.422Z,10.23
2018-01-04T23:31:19.771Z,10.50
2018-01-04T23:33:47.347Z,6.93
2018-01-04T23:36:14.957Z,7.90
2018-01-04T23:38:42.535Z,8.55
2018-01-04T23:41:10.106Z,8.10
2018-01-04T23:43:37.683Z,8.52
2018-01-04T23:46:05.274Z,11.12
2018-01-04T23:48:33.761Z,10.73
2018-01-04T23:51:01.347Z,11.80
2018-01-04T23:53:28.922Z,8.35
2018-01-04T23:55:56.502Z,10.23
2018-01-04T23:58:24.090Z,10.25
